Terminal Aerodrome Forecast
Issued by NWS Sioux Falls, SD

Home | Current Version | Previous Version | Text Only | Print | Product List | Glossary On
Versions: 1 2 3 4 5 6 7 8 9 10 11 12 13
000
FTUS43 KFSD 071727
TAFSUX
TAF
KSUX 071727Z 0718/0818 31016G24KT P6SM BKN200
     FM080600 31015G23KT P6SM SCT100
     FM081500 31018G27KT P6SM SCT070=

USA.gov is the U.S. government's official web portal to all federal, state and local government web resources and services.